sensor_id;sensor_type;location;lat;lon;timestamp;temperature;humidity
15103;DHT22;7652;53.584;9.998;2023-11-19T00:00:40;6.20;99.90
15103;DHT22;7652;53.584;9.998;2023-11-19T00:04:13;6.20;99.90
15103;DHT22;7652;53.584;9.998;2023-11-19T00:07:35;6.20;99.90
15103;DHT22;7652;53.584;9.998;2023-11-19T00:10:57;6.20;99.90
15103;DHT22;7652;53.584;9.998;2023-11-19T00:14:20;6.20;99.90
15103;DHT22;7652;53.584;9.998;2023-11-19T00:17:43;6.30;99.90
15103;DHT22;7652;53.584;9.998;2023-11-19T00:21:06;6.30;99.90
15103;DHT22;7652;53.584;9.998;2023-11-19T00:24:28;6.20;99.90
15103;DHT22;7652;53.584;9.998;2023-11-19T00:27:51;6.30;99.90
15103;DHT22;7652;53.584;9.998;2023-11-19T00:31:15;6.20;99.90
15103;DHT22;7652;53.584;9.998;2023-11-19T00:34:37;6.20;99.90
15103;DHT22;7652;53.584;9.998;2023-11-19T00:37:58;6.20;99.90
15103;DHT22;7652;53.584;9.998;2023-11-19T00:41:21;6.20;99.90
15103;DHT22;7652;53.584;9.998;2023-11-19T00:44:43;6.20;99.90
15103;DHT22;7652;53.584;9.998;2023-11-19T00:48:12;6.20;99.90
15103;DHT22;7652;53.584;9.998;2023-11-19T00:51:33;6.20;99.90
15103;DHT22;7652;53.584;9.998;2023-11-19T00:54:55;6.20;99.90
15103;DHT22;7652;53.584;9.998;2023-11-19T00:58:17;6.30;99.90
15103;DHT22;7652;53.584;9.998;2023-11-19T01:01:39;6.30;99.90
15103;DHT22;7652;53.584;9.998;2023-11-19T01:05:02;6.30;99.90
15103;DHT22;7652;53.584;9.998;2023-11-19T01:08:24;6.30;99.90
15103;DHT22;7652;53.584;9.998;2023-11-19T01:11:46;6.30;99.90
15103;DHT22;7652;53.584;9.998;2023-11-19T01:15:08;6.40;99.90
15103;DHT22;7652;53.584;9.998;2023-11-19T01:18:30;6.30;99.90
15103;DHT22;7652;53.584;9.998;2023-11-19T01:21:53;6.20;99.90
15103;DHT22;7652;53.584;9.998;2023-11-19T01:25:16;6.20;99.90
15103;DHT22;7652;53.584;9.998;2023-11-19T01:28:37;6.30;99.90
15103;DHT22;7652;53.584;9.998;2023-11-19T01:32:11;6.30;99.90
15103;DHT22;7652;53.584;9.998;2023-11-19T01:35:33;6.20;99.90
15103;DHT22;7652;53.584;9.998;2023-11-19T01:38:56;6.30;99.90
15103;DHT22;7652;53.584;9.998;2023-11-19T01:42:17;6.20;99.90
15103;DHT22;7652;53.584;9.998;2023-11-19T01:45:39;6.20;99.90
15103;DHT22;7652;53.584;9.998;2023-11-19T01:49:02;6.20;99.90
15103;DHT22;7652;53.584;9.998;2023-11-19T01:52:25;6.20;99.90
15103;DHT22;7652;53.584;9.998;2023-11-19T01:55:49;6.30;99.90
15103;DHT22;7652;53.584;9.998;2023-11-19T01:59:13;6.30;99.90
15103;DHT22;7652;53.584;9.998;2023-11-19T02:02:35;6.40;99.90
15103;DHT22;7652;53.584;9.998;2023-11-19T02:05:57;6.40;99.90
15103;DHT22;7652;53.584;9.998;2023-11-19T02:09:19;6.30;99.90
15103;DHT22;7652;53.584;9.998;2023-11-19T02:12:43;6.30;99.90
15103;DHT22;7652;53.584;9.998;2023-11-19T02:16:06;6.40;99.90
15103;DHT22;7652;53.584;9.998;2023-11-19T02:19:30;6.40;99.90
15103;DHT22;7652;53.584;9.998;2023-11-19T02:22:51;6.30;99.90
15103;DHT22;7652;53.584;9.998;2023-11-19T02:26:16;6.20;99.90
15103;DHT22;7652;53.584;9.998;2023-11-19T02:29:40;6.30;99.90
15103;DHT22;7652;53.584;9.998;2023-11-19T02:33:03;6.40;99.90
15103;DHT22;7652;53.584;9.998;2023-11-19T02:36:26;6.40;99.90
15103;DHT22;7652;53.584;9.998;2023-11-19T02:39:47;6.50;99.90
15103;DHT22;7652;53.584;9.998;2023-11-19T02:43:08;6.40;99.90
15103;DHT22;7652;53.584;9.998;2023-11-19T02:46:32;6.40;99.90
15103;DHT22;7652;53.584;9.998;2023-11-19T02:49:53;6.50;99.90
15103;DHT22;7652;53.584;9.998;2023-11-19T02:53:15;6.50;99.90
15103;DHT22;7652;53.584;9.998;2023-11-19T02:56:37;6.50;99.90
15103;DHT22;7652;53.584;9.998;2023-11-19T03:00:04;6.50;99.90
15103;DHT22;7652;53.584;9.998;2023-11-19T03:03:34;6.40;99.90
15103;DHT22;7652;53.584;9.998;2023-11-19T03:06:59;6.40;99.90
15103;DHT22;7652;53.584;9.998;2023-11-19T03:10:20;6.50;99.90
15103;DHT22;7652;53.584;9.998;2023-11-19T03:13:42;6.50;99.90
15103;DHT22;7652;53.584;9.998;2023-11-19T03:17:03;6.60;99.90
15103;DHT22;7652;53.584;9.998;2023-11-19T03:20:26;6.60;99.90
15103;DHT22;7652;53.584;9.998;2023-11-19T03:23:50;6.70;99.90
15103;DHT22;7652;53.584;9.998;2023-11-19T03:27:12;6.80;99.90
15103;DHT22;7652;53.584;9.998;2023-11-19T03:30:35;6.80;99.90
15103;DHT22;7652;53.584;9.998;2023-11-19T03:33:57;6.90;99.90
15103;DHT22;7652;53.584;9.998;2023-11-19T03:37:20;6.80;99.90
15103;DHT22;7652;53.584;9.998;2023-11-19T03:40:42;6.80;99.90
15103;DHT22;7652;53.584;9.998;2023-11-19T03:44:04;6.90;99.90
15103;DHT22;7652;53.584;9.998;2023-11-19T03:47:25;6.90;99.90
15103;DHT22;7652;53.584;9.998;2023-11-19T03:50:47;7.00;99.90
15103;DHT22;7652;53.584;9.998;2023-11-19T03:54:10;7.10;99.90
15103;DHT22;7652;53.584;9.998;2023-11-19T03:57:32;7.10;99.90
15103;DHT22;7652;53.584;9.998;2023-11-19T04:00:54;7.20;99.90
15103;DHT22;7652;53.584;9.998;2023-11-19T04:04:15;7.20;99.90
15103;DHT22;7652;53.584;9.998;2023-11-19T04:07:37;7.20;99.90
15103;DHT22;7652;53.584;9.998;2023-11-19T04:11:00;7.20;99.90
15103;DHT22;7652;53.584;9.998;2023-11-19T04:14:22;7.20;99.90
15103;DHT22;7652;53.584;9.998;2023-11-19T04:17:43;7.20;99.90
15103;DHT22;7652;53.584;9.998;2023-11-19T04:21:06;7.20;99.90
15103;DHT22;7652;53.584;9.998;2023-11-19T04:24:28;7.30;99.90
15103;DHT22;7652;53.584;9.998;2023-11-19T04:27:51;7.30;99.90
15103;DHT22;7652;53.584;9.998;2023-11-19T04:31:12;7.30;99.90
15103;DHT22;7652;53.584;9.998;2023-11-19T04:34:36;7.20;99.90
15103;DHT22;7652;53.584;9.998;2023-11-19T04:37:57;7.10;99.90
15103;DHT22;7652;53.584;9.998;2023-11-19T04:41:19;7.20;99.90
15103;DHT22;7652;53.584;9.998;2023-11-19T04:44:43;7.30;99.90
15103;DHT22;7652;53.584;9.998;2023-11-19T04:48:04;7.40;99.90
15103;DHT22;7652;53.584;9.998;2023-11-19T04:51:26;7.50;99.90
15103;DHT22;7652;53.584;9.998;2023-11-19T04:54:47;7.40;99.90
15103;DHT22;7652;53.584;9.998;2023-11-19T04:58:09;7.40;99.90
15103;DHT22;7652;53.584;9.998;2023-11-19T05:01:32;7.50;99.90
15103;DHT22;7652;53.584;9.998;2023-11-19T05:04:54;7.50;99.90
15103;DHT22;7652;53.584;9.998;2023-11-19T05:08:15;7.50;99.90
15103;DHT22;7652;53.584;9.998;2023-11-19T05:11:37;7.70;99.90
15103;DHT22;7652;53.584;9.998;2023-11-19T05:15:11;7.80;99.90
15103;DHT22;7652;53.584;9.998;2023-11-19T05:18:34;7.90;99.90
15103;DHT22;7652;53.584;9.998;2023-11-19T05:21:56;7.90;99.90
15103;DHT22;7652;53.584;9.998;2023-11-19T05:25:18;7.90;99.90
15103;DHT22;7652;53.584;9.998;2023-11-19T05:28:40;7.90;99.90
15103;DHT22;7652;53.584;9.998;2023-11-19T05:32:02;8.00;99.90
15103;DHT22;7652;53.584;9.998;2023-11-19T05:35:25;8.00;99.90
15103;DHT22;7652;53.584;9.998;2023-11-19T05:38:47;8.10;99.90
15103;DHT22;7652;53.584;9.998;2023-11-19T05:42:08;8.20;99.90
15103;DHT22;7652;53.584;9.998;2023-11-19T05:45:31;8.20;99.90
15103;DHT22;7652;53.584;9.998;2023-11-19T05:48:53;8.30;99.90
15103;DHT22;7652;53.584;9.998;2023-11-19T05:52:15;8.50;99.90
15103;DHT22;7652;53.584;9.998;2023-11-19T05:55:37;8.70;99.90
15103;DHT22;7652;53.584;9.998;2023-11-19T05:59:06;9.00;99.90
15103;DHT22;7652;53.584;9.998;2023-11-19T06:02:35;9.40;99.90
15103;DHT22;7652;53.584;9.998;2023-11-19T06:05:57;9.50;99.90
15103;DHT22;7652;53.584;9.998;2023-11-19T06:09:20;9.70;99.90
15103;DHT22;7652;53.584;9.998;2023-11-19T06:12:43;10.00;99.90
15103;DHT22;7652;53.584;9.998;2023-11-19T06:16:07;10.10;99.90
15103;DHT22;7652;53.584;9.998;2023-11-19T06:19:28;10.20;99.90
15103;DHT22;7652;53.584;9.998;2023-11-19T06:22:50;10.20;99.90
15103;DHT22;7652;53.584;9.998;2023-11-19T06:26:13;10.40;99.90
15103;DHT22;7652;53.584;9.998;2023-11-19T06:29:35;10.50;99.90
15103;DHT22;7652;53.584;9.998;2023-11-19T06:32:56;10.50;99.90
15103;DHT22;7652;53.584;9.998;2023-11-19T06:36:18;10.60;99.90
15103;DHT22;7652;53.584;9.998;2023-11-19T06:39:40;10.60;99.90
15103;DHT22;7652;53.584;9.998;2023-11-19T06:43:03;10.60;99.90
15103;DHT22;7652;53.584;9.998;2023-11-19T06:46:24;10.70;99.90
15103;DHT22;7652;53.584;9.998;2023-11-19T06:49:46;10.70;99.90
15103;DHT22;7652;53.584;9.998;2023-11-19T06:53:07;10.80;99.90
15103;DHT22;7652;53.584;9.998;2023-11-19T06:56:31;10.80;99.90
15103;DHT22;7652;53.584;9.998;2023-11-19T06:59:53;10.90;99.90
15103;DHT22;7652;53.584;9.998;2023-11-19T07:03:15;10.90;99.90
15103;DHT22;7652;53.584;9.998;2023-11-19T07:06:37;11.00;99.90
15103;DHT22;7652;53.584;9.998;2023-11-19T07:09:59;11.00;99.90
15103;DHT22;7652;53.584;9.998;2023-11-19T07:13:22;11.10;99.90
15103;DHT22;7652;53.584;9.998;2023-11-19T07:16:45;11.10;99.90
15103;DHT22;7652;53.584;9.998;2023-11-19T07:20:07;11.10;99.90
15103;DHT22;7652;53.584;9.998;2023-11-19T07:23:29;11.20;99.90
15103;DHT22;7652;53.584;9.998;2023-11-19T07:26:51;11.20;99.90
15103;DHT22;7652;53.584;9.998;2023-11-19T07:30:12;11.20;99.90
15103;DHT22;7652;53.584;9.998;2023-11-19T07:33:35;11.20;99.90
15103;DHT22;7652;53.584;9.998;2023-11-19T07:36:57;11.20;99.90
15103;DHT22;7652;53.584;9.998;2023-11-19T07:40:22;11.30;99.90
15103;DHT22;7652;53.584;9.998;2023-11-19T07:43:46;11.30;99.90
15103;DHT22;7652;53.584;9.998;2023-11-19T07:47:07;11.30;99.90
15103;DHT22;7652;53.584;9.998;2023-11-19T07:50:30;11.30;99.90
15103;DHT22;7652;53.584;9.998;2023-11-19T07:53:52;11.40;99.90
15103;DHT22;7652;53.584;9.998;2023-11-19T07:57:13;11.40;99.90
15103;DHT22;7652;53.584;9.998;2023-11-19T08:00:35;11.50;99.90
15103;DHT22;7652;53.584;9.998;2023-11-19T08:03:57;11.50;99.90
15103;DHT22;7652;53.584;9.998;2023-11-19T08:07:21;11.50;99.90
15103;DHT22;7652;53.584;9.998;2023-11-19T08:10:43;11.60;99.90
15103;DHT22;7652;53.584;9.998;2023-11-19T08:14:04;11.60;99.90
15103;DHT22;7652;53.584;9.998;2023-11-19T08:17:26;11.60;99.90
15103;DHT22;7652;53.584;9.998;2023-11-19T08:20:47;11.60;99.90
15103;DHT22;7652;53.584;9.998;2023-11-19T08:24:14;11.60;99.90
15103;DHT22;7652;53.584;9.998;2023-11-19T08:27:35;11.70;99.90
15103;DHT22;7652;53.584;9.998;2023-11-19T08:30:57;11.70;99.90
15103;DHT22;7652;53.584;9.998;2023-11-19T08:34:19;11.70;99.90
15103;DHT22;7652;53.584;9.998;2023-11-19T08:37:40;11.70;99.90
15103;DHT22;7652;53.584;9.998;2023-11-19T08:41:04;11.70;99.90
15103;DHT22;7652;53.584;9.998;2023-11-19T08:44:26;11.70;99.90
15103;DHT22;7652;53.584;9.998;2023-11-19T08:47:47;11.80;99.90
15103;DHT22;7652;53.584;9.998;2023-11-19T08:51:09;11.80;99.90
15103;DHT22;7652;53.584;9.998;2023-11-19T08:54:30;11.80;99.90
15103;DHT22;7652;53.584;9.998;2023-11-19T08:57:54;11.90;99.90
15103;DHT22;7652;53.584;9.998;2023-11-19T09:01:17;11.90;99.90
15103;DHT22;7652;53.584;9.998;2023-11-19T09:04:38;11.90;99.90
15103;DHT22;7652;53.584;9.998;2023-11-19T09:08:01;12.00;99.90
15103;DHT22;7652;53.584;9.998;2023-11-19T09:11:22;12.00;99.90
15103;DHT22;7652;53.584;9.998;2023-11-19T09:14:45;12.00;99.90
15103;DHT22;7652;53.584;9.998;2023-11-19T09:18:06;12.00;99.90
15103;DHT22;7652;53.584;9.998;2023-11-19T09:21:28;12.20;99.90
15103;DHT22;7652;53.584;9.998;2023-11-19T09:24:50;12.20;99.90
15103;DHT22;7652;53.584;9.998;2023-11-19T09:28:11;12.20;99.90
15103;DHT22;7652;53.584;9.998;2023-11-19T09:31:34;12.30;99.90
15103;DHT22;7652;53.584;9.998;2023-11-19T09:34:56;12.30;99.90
15103;DHT22;7652;53.584;9.998;2023-11-19T09:38:17;12.30;99.90
15103;DHT22;7652;53.584;9.998;2023-11-19T09:41:39;12.40;99.90
15103;DHT22;7652;53.584;9.998;2023-11-19T09:45:02;12.40;99.90
15103;DHT22;7652;53.584;9.998;2023-11-19T09:48:27;12.40;99.90
15103;DHT22;7652;53.584;9.998;2023-11-19T09:51:49;12.50;99.90
15103;DHT22;7652;53.584;9.998;2023-11-19T09:55:10;12.50;99.90
15103;DHT22;7652;53.584;9.998;2023-11-19T09:58:32;12.60;99.90
15103;DHT22;7652;53.584;9.998;2023-11-19T10:01:54;12.60;99.90
15103;DHT22;7652;53.584;9.998;2023-11-19T10:05:20;12.60;99.90
15103;DHT22;7652;53.584;9.998;2023-11-19T10:08:43;12.70;99.90
15103;DHT22;7652;53.584;9.998;2023-11-19T10:12:05;12.60;99.90
15103;DHT22;7652;53.584;9.998;2023-11-19T10:15:27;12.40;99.90
15103;DHT22;7652;53.584;9.998;2023-11-19T10:18:50;12.40;99.90
15103;DHT22;7652;53.584;9.998;2023-11-19T10:22:14;12.40;99.90
15103;DHT22;7652;53.584;9.998;2023-11-19T10:25:37;12.40;99.90
15103;DHT22;7652;53.584;9.998;2023-11-19T10:28:58;12.30;99.90
15103;DHT22;7652;53.584;9.998;2023-11-19T10:32:21;12.30;99.90
15103;DHT22;7652;53.584;9.998;2023-11-19T10:35:54;12.30;99.90
15103;DHT22;7652;53.584;9.998;2023-11-19T10:39:21;12.30;99.90
15103;DHT22;7652;53.584;9.998;2023-11-19T10:42:44;12.30;99.90
15103;DHT22;7652;53.584;9.998;2023-11-19T10:46:10;12.40;99.90
15103;DHT22;7652;53.584;9.998;2023-11-19T10:49:32;12.40;99.90
15103;DHT22;7652;53.584;9.998;2023-11-19T10:52:56;12.40;99.90
15103;DHT22;7652;53.584;9.998;2023-11-19T10:56:23;12.40;99.90
15103;DHT22;7652;53.584;9.998;2023-11-19T10:59:46;12.40;99.90
15103;DHT22;7652;53.584;9.998;2023-11-19T11:03:11;12.50;99.90
15103;DHT22;7652;53.584;9.998;2023-11-19T11:06:36;12.60;99.90
15103;DHT22;7652;53.584;9.998;2023-11-19T11:09:58;12.60;99.90
15103;DHT22;7652;53.584;9.998;2023-11-19T11:13:22;12.70;99.90
15103;DHT22;7652;53.584;9.998;2023-11-19T11:16:46;12.70;99.90
15103;DHT22;7652;53.584;9.998;2023-11-19T11:20:09;12.60;99.90
15103;DHT22;7652;53.584;9.998;2023-11-19T11:27:36;12.60;99.90
15103;DHT22;7652;53.584;9.998;2023-11-19T11:31:16;12.90;99.90
15103;DHT22;7652;53.584;9.998;2023-11-19T11:35:08;13.00;99.90
15103;DHT22;7652;53.584;9.998;2023-11-19T11:38:36;13.00;99.90
15103;DHT22;7652;53.584;9.998;2023-11-19T11:42:30;12.80;99.90
15103;DHT22;7652;53.584;9.998;2023-11-19T11:45:52;12.80;99.90
15103;DHT22;7652;53.584;9.998;2023-11-19T11:49:15;12.80;99.90
15103;DHT22;7652;53.584;9.998;2023-11-19T11:53:13;12.90;99.90
15103;DHT22;7652;53.584;9.998;2023-11-19T11:56:37;12.80;99.90
15103;DHT22;7652;53.584;9.998;2023-11-19T12:00:02;12.80;99.90
15103;DHT22;7652;53.584;9.998;2023-11-19T12:03:28;12.80;99.90
15103;DHT22;7652;53.584;9.998;2023-11-19T12:07:04;12.90;99.90
15103;DHT22;7652;53.584;9.998;2023-11-19T12:10:26;13.00;99.90
15103;DHT22;7652;53.584;9.998;2023-11-19T12:13:54;13.10;99.90
15103;DHT22;7652;53.584;9.998;2023-11-19T12:17:37;13.10;99.90
15103;DHT22;7652;53.584;9.998;2023-11-19T12:21:00;13.20;99.90
15103;DHT22;7652;53.584;9.998;2023-11-19T12:24:23;13.10;99.90
15103;DHT22;7652;53.584;9.998;2023-11-19T12:27:46;13.10;99.90
15103;DHT22;7652;53.584;9.998;2023-11-19T12:31:08;13.20;99.90
15103;DHT22;7652;53.584;9.998;2023-11-19T12:34:30;13.20;99.90
15103;DHT22;7652;53.584;9.998;2023-11-19T12:37:52;13.20;99.90
15103;DHT22;7652;53.584;9.998;2023-11-19T12:41:15;13.10;99.90
15103;DHT22;7652;53.584;9.998;2023-11-19T12:44:54;13.00;99.90
15103;DHT22;7652;53.584;9.998;2023-11-19T12:48:16;12.80;99.90
15103;DHT22;7652;53.584;9.998;2023-11-19T12:51:38;12.80;99.90
15103;DHT22;7652;53.584;9.998;2023-11-19T12:54:59;12.80;99.90
15103;DHT22;7652;53.584;9.998;2023-11-19T12:58:33;12.80;99.90
15103;DHT22;7652;53.584;9.998;2023-11-19T13:01:55;12.90;99.90
15103;DHT22;7652;53.584;9.998;2023-11-19T13:05:24;13.00;99.90
15103;DHT22;7652;53.584;9.998;2023-11-19T13:08:48;13.00;99.90
15103;DHT22;7652;53.584;9.998;2023-11-19T13:12:14;13.10;99.90
15103;DHT22;7652;53.584;9.998;2023-11-19T13:15:38;13.20;99.90
15103;DHT22;7652;53.584;9.998;2023-11-19T13:19:00;13.10;99.90
15103;DHT22;7652;53.584;9.998;2023-11-19T13:22:22;13.10;99.90
15103;DHT22;7652;53.584;9.998;2023-11-19T13:25:44;13.10;99.90
15103;DHT22;7652;53.584;9.998;2023-11-19T13:29:06;13.20;99.90
15103;DHT22;7652;53.584;9.998;2023-11-19T13:32:29;13.20;99.90
15103;DHT22;7652;53.584;9.998;2023-11-19T13:35:50;13.10;99.90
15103;DHT22;7652;53.584;9.998;2023-11-19T13:39:11;12.90;99.90
15103;DHT22;7652;53.584;9.998;2023-11-19T13:42:33;12.90;99.90
15103;DHT22;7652;53.584;9.998;2023-11-19T13:45:54;12.90;99.90
15103;DHT22;7652;53.584;9.998;2023-11-19T13:49:17;12.80;99.90
15103;DHT22;7652;53.584;9.998;2023-11-19T13:52:44;12.80;99.90
15103;DHT22;7652;53.584;9.998;2023-11-19T13:56:07;12.70;99.90
15103;DHT22;7652;53.584;9.998;2023-11-19T13:59:29;12.80;99.90
15103;DHT22;7652;53.584;9.998;2023-11-19T14:02:51;12.80;99.90
15103;DHT22;7652;53.584;9.998;2023-11-19T14:06:14;12.80;99.90
15103;DHT22;7652;53.584;9.998;2023-11-19T14:09:36;12.90;99.90
15103;DHT22;7652;53.584;9.998;2023-11-19T14:12:57;12.90;99.90
15103;DHT22;7652;53.584;9.998;2023-11-19T14:16:19;13.00;99.90
15103;DHT22;7652;53.584;9.998;2023-11-19T14:19:42;13.00;99.90
15103;DHT22;7652;53.584;9.998;2023-11-19T14:23:05;13.00;99.90
15103;DHT22;7652;53.584;9.998;2023-11-19T14:26:26;13.00;99.90
15103;DHT22;7652;53.584;9.998;2023-11-19T14:29:48;12.90;99.90
15103;DHT22;7652;53.584;9.998;2023-11-19T14:33:09;12.70;99.90
15103;DHT22;7652;53.584;9.998;2023-11-19T14:36:31;12.50;99.90
15103;DHT22;7652;53.584;9.998;2023-11-19T14:39:54;12.40;99.90
15103;DHT22;7652;53.584;9.998;2023-11-19T14:43:15;12.30;99.90
15103;DHT22;7652;53.584;9.998;2023-11-19T14:46:37;12.30;99.90
15103;DHT22;7652;53.584;9.998;2023-11-19T14:49:59;12.20;99.90
15103;DHT22;7652;53.584;9.998;2023-11-19T14:53:21;12.20;99.90
15103;DHT22;7652;53.584;9.998;2023-11-19T14:56:44;12.20;99.90
15103;DHT22;7652;53.584;9.998;2023-11-19T15:00:06;12.10;99.90
15103;DHT22;7652;53.584;9.998;2023-11-19T15:03:33;12.00;99.90
15103;DHT22;7652;53.584;9.998;2023-11-19T15:07:14;12.00;99.90
15103;DHT22;7652;53.584;9.998;2023-11-19T15:10:35;11.70;99.90
15103;DHT22;7652;53.584;9.998;2023-11-19T15:13:59;11.50;99.90
15103;DHT22;7652;53.584;9.998;2023-11-19T15:17:21;11.20;99.90
15103;DHT22;7652;53.584;9.998;2023-11-19T15:20:45;11.00;99.90
15103;DHT22;7652;53.584;9.998;2023-11-19T15:24:08;10.80;99.90
15103;DHT22;7652;53.584;9.998;2023-11-19T15:27:29;10.70;99.90
15103;DHT22;7652;53.584;9.998;2023-11-19T15:30:52;10.70;99.90
15103;DHT22;7652;53.584;9.998;2023-11-19T15:34:13;10.70;99.90
15103;DHT22;7652;53.584;9.998;2023-11-19T15:37:35;10.70;99.90
15103;DHT22;7652;53.584;9.998;2023-11-19T15:40:56;10.70;99.90
15103;DHT22;7652;53.584;9.998;2023-11-19T15:44:18;10.60;99.90
15103;DHT22;7652;53.584;9.998;2023-11-19T15:47:40;10.70;99.90
15103;DHT22;7652;53.584;9.998;2023-11-19T15:51:02;10.80;99.90
15103;DHT22;7652;53.584;9.998;2023-11-19T15:54:24;10.80;99.90
15103;DHT22;7652;53.584;9.998;2023-11-19T15:57:45;10.80;99.90
15103;DHT22;7652;53.584;9.998;2023-11-19T16:01:06;10.90;99.90
15103;DHT22;7652;53.584;9.998;2023-11-19T16:04:30;10.90;99.90
15103;DHT22;7652;53.584;9.998;2023-11-19T16:07:52;11.00;99.90
15103;DHT22;7652;53.584;9.998;2023-11-19T16:11:13;11.10;99.90
15103;DHT22;7652;53.584;9.998;2023-11-19T16:14:35;11.20;99.90
15103;DHT22;7652;53.584;9.998;2023-11-19T16:17:56;11.20;99.90
15103;DHT22;7652;53.584;9.998;2023-11-19T16:21:19;11.20;99.90
15103;DHT22;7652;53.584;9.998;2023-11-19T16:24:41;11.20;99.90
15103;DHT22;7652;53.584;9.998;2023-11-19T16:28:03;11.20;99.90
15103;DHT22;7652;53.584;9.998;2023-11-19T16:31:25;11.20;99.90
15103;DHT22;7652;53.584;9.998;2023-11-19T16:34:46;11.20;99.90
15103;DHT22;7652;53.584;9.998;2023-11-19T16:38:09;11.20;99.90
15103;DHT22;7652;53.584;9.998;2023-11-19T16:41:31;11.20;99.90
15103;DHT22;7652;53.584;9.998;2023-11-19T16:45:02;11.20;99.90
15103;DHT22;7652;53.584;9.998;2023-11-19T16:48:23;11.20;99.90
15103;DHT22;7652;53.584;9.998;2023-11-19T16:51:45;11.20;99.90
15103;DHT22;7652;53.584;9.998;2023-11-19T16:55:08;11.20;99.90
15103;DHT22;7652;53.584;9.998;2023-11-19T16:58:32;11.20;99.90
15103;DHT22;7652;53.584;9.998;2023-11-19T17:01:54;11.20;99.90
15103;DHT22;7652;53.584;9.998;2023-11-19T17:05:15;11.20;99.90
15103;DHT22;7652;53.584;9.998;2023-11-19T17:08:37;11.20;99.90
15103;DHT22;7652;53.584;9.998;2023-11-19T17:12:00;11.10;99.90
15103;DHT22;7652;53.584;9.998;2023-11-19T17:15:22;11.10;99.90
15103;DHT22;7652;53.584;9.998;2023-11-19T17:18:43;11.10;99.90
15103;DHT22;7652;53.584;9.998;2023-11-19T17:22:05;11.10;99.90
15103;DHT22;7652;53.584;9.998;2023-11-19T17:25:26;11.00;99.90
15103;DHT22;7652;53.584;9.998;2023-11-19T17:28:49;11.00;99.90
15103;DHT22;7652;53.584;9.998;2023-11-19T17:32:10;11.00;99.90
15103;DHT22;7652;53.584;9.998;2023-11-19T17:35:32;11.00;99.90
15103;DHT22;7652;53.584;9.998;2023-11-19T17:38:54;11.00;99.90
15103;DHT22;7652;53.584;9.998;2023-11-19T17:42:16;10.90;99.90
15103;DHT22;7652;53.584;9.998;2023-11-19T17:45:38;10.90;99.90
15103;DHT22;7652;53.584;9.998;2023-11-19T17:49:00;10.80;99.90
15103;DHT22;7652;53.584;9.998;2023-11-19T17:52:22;10.80;99.90
15103;DHT22;7652;53.584;9.998;2023-11-19T17:55:44;10.80;99.90
15103;DHT22;7652;53.584;9.998;2023-11-19T17:59:06;10.80;99.90
15103;DHT22;7652;53.584;9.998;2023-11-19T18:02:30;10.80;99.90
15103;DHT22;7652;53.584;9.998;2023-11-19T18:05:54;10.80;99.90
15103;DHT22;7652;53.584;9.998;2023-11-19T18:09:16;10.70;99.90
15103;DHT22;7652;53.584;9.998;2023-11-19T18:12:37;10.70;99.90
15103;DHT22;7652;53.584;9.998;2023-11-19T18:15:59;10.70;99.90
15103;DHT22;7652;53.584;9.998;2023-11-19T18:19:22;10.70;99.90
15103;DHT22;7652;53.584;9.998;2023-11-19T18:22:44;10.70;99.90
15103;DHT22;7652;53.584;9.998;2023-11-19T18:26:07;10.70;99.90
15103;DHT22;7652;53.584;9.998;2023-11-19T18:29:29;10.70;99.90
15103;DHT22;7652;53.584;9.998;2023-11-19T18:32:51;10.80;99.90
15103;DHT22;7652;53.584;9.998;2023-11-19T18:36:14;10.70;99.90
15103;DHT22;7652;53.584;9.998;2023-11-19T18:39:40;10.70;99.90
15103;DHT22;7652;53.584;9.998;2023-11-19T18:43:02;10.80;99.90
15103;DHT22;7652;53.584;9.998;2023-11-19T18:46:23;10.80;99.90
15103;DHT22;7652;53.584;9.998;2023-11-19T18:49:44;10.80;99.90
15103;DHT22;7652;53.584;9.998;2023-11-19T18:53:08;10.90;99.90
15103;DHT22;7652;53.584;9.998;2023-11-19T18:56:30;10.90;99.90
15103;DHT22;7652;53.584;9.998;2023-11-19T18:59:51;10.90;99.90
15103;DHT22;7652;53.584;9.998;2023-11-19T19:03:13;10.90;99.90
15103;DHT22;7652;53.584;9.998;2023-11-19T19:06:40;10.90;99.90
15103;DHT22;7652;53.584;9.998;2023-11-19T19:10:04;11.00;99.90
15103;DHT22;7652;53.584;9.998;2023-11-19T19:13:26;11.00;99.90
15103;DHT22;7652;53.584;9.998;2023-11-19T19:16:48;11.00;99.90
15103;DHT22;7652;53.584;9.998;2023-11-19T19:20:10;11.10;99.90
15103;DHT22;7652;53.584;9.998;2023-11-19T19:23:32;11.00;99.90
15103;DHT22;7652;53.584;9.998;2023-11-19T19:26:55;11.10;99.90
15103;DHT22;7652;53.584;9.998;2023-11-19T19:30:16;11.10;99.90
15103;DHT22;7652;53.584;9.998;2023-11-19T19:33:38;11.10;99.90
15103;DHT22;7652;53.584;9.998;2023-11-19T19:37:00;11.20;99.90
15103;DHT22;7652;53.584;9.998;2023-11-19T19:40:21;11.20;99.90
15103;DHT22;7652;53.584;9.998;2023-11-19T19:43:48;11.20;99.90
15103;DHT22;7652;53.584;9.998;2023-11-19T19:47:09;11.20;99.90
15103;DHT22;7652;53.584;9.998;2023-11-19T19:50:30;11.30;99.90
15103;DHT22;7652;53.584;9.998;2023-11-19T19:53:52;11.30;99.90
15103;DHT22;7652;53.584;9.998;2023-11-19T19:57:14;11.20;99.90
15103;DHT22;7652;53.584;9.998;2023-11-19T20:00:36;11.20;99.90
15103;DHT22;7652;53.584;9.998;2023-11-19T20:03:58;11.20;99.90
15103;DHT22;7652;53.584;9.998;2023-11-19T20:07:20;11.20;99.90
15103;DHT22;7652;53.584;9.998;2023-11-19T20:10:42;11.20;99.90
15103;DHT22;7652;53.584;9.998;2023-11-19T20:14:04;11.10;99.90
15103;DHT22;7652;53.584;9.998;2023-11-19T20:17:27;11.20;99.90
15103;DHT22;7652;53.584;9.998;2023-11-19T20:20:49;11.20;99.90
15103;DHT22;7652;53.584;9.998;2023-11-19T20:24:11;11.20;99.90
15103;DHT22;7652;53.584;9.998;2023-11-19T20:27:34;11.20;99.90
15103;DHT22;7652;53.584;9.998;2023-11-19T20:30:56;11.20;99.90
15103;DHT22;7652;53.584;9.998;2023-11-19T20:34:19;11.20;99.90
15103;DHT22;7652;53.584;9.998;2023-11-19T20:37:40;11.20;99.90
15103;DHT22;7652;53.584;9.998;2023-11-19T20:41:02;11.30;99.90
15103;DHT22;7652;53.584;9.998;2023-11-19T20:44:24;11.30;99.90
15103;DHT22;7652;53.584;9.998;2023-11-19T20:47:48;11.30;99.90
15103;DHT22;7652;53.584;9.998;2023-11-19T20:51:12;11.30;99.90
15103;DHT22;7652;53.584;9.998;2023-11-19T20:54:33;11.30;99.90
15103;DHT22;7652;53.584;9.998;2023-11-19T20:57:58;11.30;99.90
15103;DHT22;7652;53.584;9.998;2023-11-19T21:01:19;11.30;99.90
15103;DHT22;7652;53.584;9.998;2023-11-19T21:04:40;11.30;99.90
15103;DHT22;7652;53.584;9.998;2023-11-19T21:08:05;11.30;99.90
15103;DHT22;7652;53.584;9.998;2023-11-19T21:11:26;11.30;99.90
15103;DHT22;7652;53.584;9.998;2023-11-19T21:14:48;11.30;99.90
15103;DHT22;7652;53.584;9.998;2023-11-19T21:18:11;11.30;99.90
15103;DHT22;7652;53.584;9.998;2023-11-19T21:21:32;11.30;99.90
15103;DHT22;7652;53.584;9.998;2023-11-19T21:24:56;11.30;99.90
15103;DHT22;7652;53.584;9.998;2023-11-19T21:28:18;11.30;99.90
15103;DHT22;7652;53.584;9.998;2023-11-19T21:31:39;11.40;99.90
15103;DHT22;7652;53.584;9.998;2023-11-19T21:35:05;11.40;99.90
15103;DHT22;7652;53.584;9.998;2023-11-19T21:38:26;11.30;99.90
15103;DHT22;7652;53.584;9.998;2023-11-19T21:41:50;11.30;99.90
15103;DHT22;7652;53.584;9.998;2023-11-19T21:45:15;11.40;99.90
15103;DHT22;7652;53.584;9.998;2023-11-19T21:48:36;11.40;99.90
15103;DHT22;7652;53.584;9.998;2023-11-19T21:51:58;11.40;99.90